Time;durP1;ratioP1;P1;durP2;ratioP2;P2;SDS_P1;SDS_P2;PMS_P1;PMS_P2;Temp;Humidity;BMP_temperature;BMP_pressure;BME280_temperature;BME280_humidity;BME280_pressure;Samples;Min_cycle;Max_cycle;Signal;HPM_P1;HPM_P2
2023/04/07 00:00:29;;;;;;;57.55;32.25;;;102.80;2227.20;;;;;;5053315;28;20112;-79
2023/04/07 00:02:55;;;;;;;58.75;35.85;;;102.40;2227.20;;;;;;5033843;28;20033;-76
2023/04/07 00:05:21;;;;;;;66.07;37.05;;;102.70;2227.20;;;;;;5034880;28;20036;-80
2023/04/07 00:07:48;;;;;;;53.83;31.75;;;102.70;2227.20;;;;;;5035113;28;20041;-76
2023/04/07 00:10:14;;;;;;;68.43;38.85;;;102.80;2227.20;;;;;;5034834;28;20025;-78
2023/04/07 00:12:40;;;;;;;57.10;34.58;;;102.80;2227.20;;;;;;5035115;28;20025;-76
2023/04/07 00:15:06;;;;;;;56.63;33.30;;;102.80;2227.20;;;;;;5035053;28;20139;-81
2023/04/07 00:17:32;;;;;;;47.05;28.48;;;102.80;2227.20;;;;;;5034805;28;20051;-81
2023/04/07 00:19:58;;;;;;;36.92;26.13;;;102.80;2227.20;;;;;;5035040;28;20504;-77
2023/04/07 00:22:23;;;;;;;36.50;24.55;;;102.90;2227.20;;;;;;5035182;28;20033;-78
2023/04/07 00:24:49;;;;;;;39.90;25.30;;;102.80;2227.20;;;;;;5036212;28;20052;-78
2023/04/07 00:27:15;;;;;;;35.58;22.20;;;102.80;2227.20;;;;;;5034078;28;20032;-78
2023/04/07 00:29:42;;;;;;;36.83;23.70;;;102.70;2227.20;;;;;;5017988;28;20030;-78
2023/04/07 00:32:08;;;;;;;36.80;26.65;;;102.70;2227.20;;;;;;5017475;28;20022;-79
2023/04/07 00:34:34;;;;;;;35.22;22.58;;;102.60;2227.20;;;;;;5018682;28;20025;-76
2023/04/07 00:37:00;;;;;;;34.25;23.45;;;102.60;2227.20;;;;;;5018496;28;20115;-81
2023/04/07 00:39:26;;;;;;;39.03;24.33;;;102.50;2227.20;;;;;;5018395;28;20490;-78
2023/04/07 00:41:52;;;;;;;36.92;24.98;;;102.60;2227.20;;;;;;5018593;28;20040;-79
2023/04/07 00:44:18;;;;;;;36.17;24.77;;;77.70;2227.20;;;;;;5018625;28;20112;-77
2023/04/07 00:46:46;;;;;;;40.42;25.20;;;102.40;2227.20;;;;;;5018122;28;20037;-78
2023/04/07 00:49:12;;;;;;;37.33;24.65;;;77.70;2227.20;;;;;;5018503;28;20087;-76
2023/04/07 00:51:38;;;;;;;31.55;21.63;;;77.70;2227.20;;;;;;5018248;28;20025;-77
2023/04/07 00:54:04;;;;;;;78.85;39.63;;;102.40;2227.20;;;;;;5034971;28;20083;-76
2023/04/07 00:56:31;;;;;;;59.22;33.47;;;77.70;2227.20;;;;;;5029725;28;20029;-79
2023/04/07 00:58:57;;;;;;;42.78;26.20;;;77.60;2227.20;;;;;;5037926;28;20051;-77
2023/04/07 01:01:29;;;;;;;34.72;21.77;;;77.50;2227.20;;;;;;5038083;28;20142;-75
2023/04/07 01:04:06;;;;;;;27.55;19.20;;;77.50;2227.20;;;;;;5038278;28;20056;-75
2023/04/07 01:06:36;;;;;;;33.53;21.23;;;77.40;2227.20;;;;;;5037973;28;20131;-77
2023/04/07 01:09:10;;;;;;;31.48;21.23;;;77.40;2227.20;;;;;;5059722;28;20036;-76
2023/04/07 01:11:43;;;;;;;31.83;21.77;;;77.40;2227.20;;;;;;5060565;28;20040;-75
2023/04/07 01:14:12;;;;;;;30.48;20.33;;;77.20;2227.20;;;;;;5056480;28;20017;-76
2023/04/07 01:16:50;;;;;;;32.33;22.52;;;77.20;2227.20;;;;;;5038428;28;20049;-77
2023/04/07 01:19:35;;;;;;;29.65;20.90;;;77.40;2227.20;;;;;;5038250;28;20021;-77
2023/04/07 01:22:07;;;;;;;28.20;19.33;;;77.20;2227.20;;;;;;5056754;28;20021;-76
2023/04/07 01:25:03;;;;;;;27.70;17.77;;;77.40;2227.20;;;;;;5056265;28;20071;-77
2023/04/07 01:27:47;;;;;;;30.58;21.40;;;77.40;2227.20;;;;;;5055783;28;20039;-78
2023/04/07 01:30:15;;;;;;;29.38;18.48;;;77.30;2227.20;;;;;;5038023;28;20036;-77
2023/04/07 01:32:45;;;;;;;27.88;19.20;;;77.40;2227.20;;;;;;5037698;28;20116;-78
2023/04/07 01:35:13;;;;;;;26.23;19.30;;;77.30;2227.20;;;;;;5037360;28;20025;-77
2023/04/07 01:37:39;;;;;;;32.55;22.83;;;77.30;2227.20;;;;;;5036624;28;20056;-77
2023/04/07 01:40:07;;;;;;;29.15;21.20;;;77.30;2227.20;;;;;;5037530;28;20029;-79
2023/04/07 01:42:35;;;;;;;30.25;20.50;;;77.30;2227.20;;;;;;5037113;28;20079;-77
2023/04/07 01:45:03;;;;;;;28.92;21.23;;;77.30;2227.20;;;;;;5037527;28;20090;-78
2023/04/07 01:47:29;;;;;;;32.33;21.13;;;77.10;2227.20;;;;;;5055053;28;20024;-77
2023/04/07 01:50:03;;;;;;;29.83;20.35;;;77.30;2227.20;;;;;;5037231;28;20064;-78
2023/04/07 01:52:29;;;;;;;30.27;20.15;;;77.40;2227.20;;;;;;5037735;28;20033;-82
2023/04/07 01:54:56;;;;;;;28.48;20.75;;;77.30;2227.20;;;;;;5039022;28;20170;-75
2023/04/07 01:57:22;;;;;;;26.10;18.92;;;77.30;2227.20;;;;;;5038983;28;20043;-77
2023/04/07 01:59:48;;;;;;;33.10;23.25;;;77.20;2227.20;;;;;;5038523;28;20029;-77
2023/04/07 02:02:13;;;;;;;42.70;24.15;;;77.10;2227.20;;;;;;5036135;28;20469;-77
2023/04/07 02:05:08;;;;;;;38.13;22.35;;;77.10;2227.20;;;;;;5036848;28;20060;-76
2023/04/07 02:07:57;;;;;;;33.58;20.67;;;77.20;2227.20;;;;;;5033985;28;20087;-76
2023/04/07 02:10:24;;;;;;;37.05;24.25;;;77.20;2227.20;;;;;;5036660;28;20178;-78
2023/04/07 02:12:51;;;;;;;35.35;21.88;;;77.30;2227.20;;;;;;5036731;28;20052;-78
2023/04/07 02:15:18;;;;;;;27.08;17.92;;;77.40;2227.20;;;;;;5036695;28;20111;-77
2023/04/07 02:17:48;;;;;;;26.02;16.65;;;77.40;2227.20;;;;;;5036332;28;20480;-78
2023/04/07 02:20:15;;;;;;;30.15;18.02;;;77.40;2227.20;;;;;;5036794;28;20051;-78
2023/04/07 02:22:43;;;;;;;25.25;16.50;;;77.40;2227.20;;;;;;5053822;28;20021;-78
2023/04/07 02:25:29;;;;;;;21.45;15.63;;;77.50;2227.20;;;;;;5036411;28;20111;-77
2023/04/07 02:27:57;;;;;;;21.55;15.48;;;77.50;2227.20;;;;;;5036467;28;20124;-77
2023/04/07 02:30:23;;;;;;;20.75;14.35;;;77.60;2227.20;;;;;;5053720;28;20032;-78
2023/04/07 02:32:49;;;;;;;23.10;17.08;;;77.40;2227.20;;;;;;5036241;28;20353;-79
2023/04/07 02:35:15;;;;;;;25.58;17.00;;;77.60;2227.20;;;;;;5036182;28;20028;-79
2023/04/07 02:37:42;;;;;;;31.02;19.45;;;77.60;2227.20;;;;;;5035619;28;20118;-78
2023/04/07 02:40:08;;;;;;;42.45;26.65;;;77.70;2227.20;;;;;;5054295;28;20392;-77
2023/04/07 02:42:35;;;;;;;54.88;29.60;;;77.70;2227.20;;;;;;5036141;28;20025;-76
2023/04/07 02:45:02;;;;;;;45.53;29.42;;;77.60;2227.20;;;;;;5053403;28;20087;-77
2023/04/07 02:47:27;;;;;;;38.15;26.55;;;77.70;2227.20;;;;;;5035863;28;20060;-76
2023/04/07 02:49:53;;;;;;;98.53;58.47;;;102.40;2227.20;;;;;;5034610;28;20433;-77
2023/04/07 02:52:19;;;;;;;107.20;61.90;;;77.60;2227.20;;;;;;5051627;28;20110;-77
2023/04/07 02:54:46;;;;;;;103.95;59.88;;;77.70;2227.20;;;;;;5034801;28;20025;-77
2023/04/07 02:57:12;;;;;;;76.93;45.97;;;102.40;2227.20;;;;;;5051955;28;20435;-76
2023/04/07 02:59:38;;;;;;;44.65;30.27;;;102.40;2227.20;;;;;;5031171;28;20138;-77
2023/04/07 03:02:04;;;;;;;54.40;34.35;;;102.40;2227.20;;;;;;5033076;28;20100;-77
2023/04/07 03:04:30;;;;;;;46.85;31.08;;;102.40;2227.20;;;;;;5031936;28;20091;-76
2023/04/07 03:06:57;;;;;;;61.67;37.05;;;102.50;2227.20;;;;;;5032361;28;20137;-78
2023/04/07 03:09:22;;;;;;;65.63;39.35;;;102.40;2227.20;;;;;;5032439;28;20084;-78
2023/04/07 03:11:48;;;;;;;94.68;51.65;;;102.40;2227.20;;;;;;5032063;28;20021;-76
2023/04/07 03:14:15;;;;;;;76.70;45.15;;;102.50;2227.20;;;;;;5032432;28;20026;-77
2023/04/07 03:16:41;;;;;;;70.25;40.70;;;77.70;2227.20;;;;;;5032376;28;20063;-76
2023/04/07 03:19:07;;;;;;;66.45;35.90;;;102.40;2227.20;;;;;;5032075;28;20116;-76
2023/04/07 03:21:33;;;;;;;71.53;41.13;;;102.50;2227.20;;;;;;5033242;28;20114;-77
2023/04/07 03:23:59;;;;;;;62.88;36.45;;;102.60;2227.20;;;;;;5032366;28;20022;-78
2023/04/07 03:26:25;;;;;;;52.05;30.55;;;102.60;2227.20;;;;;;5031919;28;20032;-77
2023/04/07 03:28:51;;;;;;;50.58;31.70;;;102.70;2227.20;;;;;;5032359;28;20079;-75
2023/04/07 03:31:16;;;;;;;38.40;24.27;;;102.70;2227.20;;;;;;5033578;28;20108;-76
2023/04/07 03:33:42;;;;;;;35.75;23.80;;;102.60;2227.20;;;;;;5033460;28;20444;-77
2023/04/07 03:36:08;;;;;;;40.05;23.88;;;102.60;2227.20;;;;;;5032152;28;20087;-76
2023/04/07 03:38:34;;;;;;;38.65;24.15;;;77.70;2227.20;;;;;;5032176;28;20512;-77
2023/04/07 03:41:00;;;;;;;35.45;22.08;;;77.60;2227.20;;;;;;5033200;28;20515;-77
2023/04/07 03:43:26;;;;;;;29.85;17.67;;;77.60;2227.20;;;;;;5033487;28;20028;-76
2023/04/07 03:45:55;;;;;;;27.05;16.48;;;77.40;2227.20;;;;;;5033951;28;20044;-78
2023/04/07 03:48:20;;;;;;;22.30;15.05;;;77.20;2227.20;;;;;;5033206;28;20029;-78
2023/04/07 03:50:46;;;;;;;31.00;19.17;;;77.40;2227.20;;;;;;5033411;28;20029;-77
2023/04/07 03:53:15;;;;;;;29.15;21.30;;;77.20;2227.20;;;;;;5032913;28;20029;-76
2023/04/07 03:55:41;;;;;;;29.15;18.65;;;77.30;2227.20;;;;;;5033309;28;20381;-79
2023/04/07 03:58:08;;;;;;;32.38;20.15;;;77.40;2227.20;;;;;;5035927;28;20030;-78
2023/04/07 04:00:34;;;;;;;36.63;23.15;;;77.60;2227.20;;;;;;5038177;28;20036;-78
2023/04/07 04:03:00;;;;;;;55.42;32.75;;;77.70;2227.20;;;;;;5035588;28;20029;-79
2023/04/07 04:05:26;;;;;;;49.97;29.00;;;77.60;2227.20;;;;;;5035769;28;20033;-76
2023/04/07 04:07:52;;;;;;;55.67;40.65;;;102.40;2227.20;;;;;;5035492;28;20036;-77
2023/04/07 04:10:18;;;;;;;52.75;41.83;;;77.60;2227.20;;;;;;5037047;28;20029;-77
2023/04/07 04:12:46;;;;;;;41.95;29.88;;;77.70;2227.20;;;;;;5035564;28;20021;-80
2023/04/07 04:15:12;;;;;;;39.42;27.92;;;77.60;2227.20;;;;;;5035424;28;20063;-76
2023/04/07 04:17:38;;;;;;;48.35;28.75;;;102.50;2227.20;;;;;;5035654;28;20026;-77
2023/04/07 04:20:04;;;;;;;41.90;27.95;;;102.40;2227.20;;;;;;5035725;28;20068;-76
2023/04/07 04:22:30;;;;;;;42.55;29.83;;;102.70;2227.20;;;;;;5035421;28;20124;-78
2023/04/07 04:24:56;;;;;;;60.65;37.95;;;102.50;2227.20;;;;;;5035997;28;20125;-80
2023/04/07 04:27:21;;;;;;;51.30;35.92;;;102.70;2227.20;;;;;;5033642;28;20413;-78
2023/04/07 04:29:47;;;;;;;49.67;32.75;;;102.40;2227.20;;;;;;5019284;28;20087;-76
2023/04/07 04:32:13;;;;;;;41.33;30.20;;;77.70;2227.20;;;;;;5018237;28;20116;-77
2023/04/07 04:34:41;;;;;;;64.75;43.05;;;102.60;2227.20;;;;;;5019486;28;20078;-76
2023/04/07 04:37:06;;;;;;;86.03;55.72;;;102.70;2227.20;;;;;;5018761;28;20045;-76
2023/04/07 04:39:33;;;;;;;85.10;57.33;;;102.60;2227.20;;;;;;5019426;28;20028;-78
2023/04/07 04:41:58;;;;;;;98.10;62.38;;;102.70;2227.20;;;;;;5018952;28;20045;-78
2023/04/07 04:44:24;;;;;;;126.35;77.68;;;102.80;2227.20;;;;;;5018165;28;20458;-77
2023/04/07 04:46:51;;;;;;;96.05;64.03;;;102.80;2227.20;;;;;;5018417;28;20036;-76
2023/04/07 04:49:17;;;;;;;103.63;68.47;;;102.60;2227.20;;;;;;5019348;28;20444;-76
2023/04/07 04:51:44;;;;;;;103.80;68.00;;;102.80;2227.20;;;;;;5036758;28;20116;-80
2023/04/07 04:54:10;;;;;;;92.43;61.10;;;103.10;2227.20;;;;;;5054965;28;20024;-76
2023/04/07 04:56:35;;;;;;;83.35;55.30;;;102.70;2227.20;;;;;;5037788;28;20040;-77
2023/04/07 04:59:03;;;;;;;87.30;57.38;;;102.60;2227.20;;;;;;5037981;28;20057;-76
2023/04/07 05:01:29;;;;;;;79.97;58.10;;;102.80;2227.20;;;;;;5038067;28;20449;-78
2023/04/07 05:03:55;;;;;;;87.03;57.88;;;102.80;2227.20;;;;;;5055777;28;20017;-77
2023/04/07 05:06:21;;;;;;;82.55;58.13;;;102.80;2227.20;;;;;;5037795;28;20469;-76
2023/04/07 05:08:47;;;;;;;87.50;58.92;;;102.80;2227.20;;;;;;5037882;28;20037;-78
2023/04/07 05:11:13;;;;;;;79.80;53.85;;;102.90;2227.20;;;;;;5036372;28;20025;-78
2023/04/07 05:13:39;;;;;;;83.20;54.25;;;102.90;2227.20;;;;;;5037426;28;20472;-78
2023/04/07 05:16:05;;;;;;;81.15;50.10;;;102.90;2227.20;;;;;;5037791;28;20040;-78
2023/04/07 05:18:31;;;;;;;78.65;47.53;;;102.80;2227.20;;;;;;5037358;28;20139;-78
2023/04/07 05:20:57;;;;;;;69.68;47.22;;;102.90;2227.20;;;;;;5037780;28;20028;-77
2023/04/07 05:23:22;;;;;;;873.60;436.98;;;103.10;2227.20;;;;;;5037743;28;20388;-77
2023/04/07 05:25:49;;;;;;;735.95;379.00;;;103.20;2227.20;;;;;;5037336;28;20032;-80
2023/04/07 05:28:15;;;;;;;1061.40;481.00;;;103.20;2227.20;;;;;;5037302;28;20040;-79
2023/04/07 05:30:40;;;;;;;542.20;260.98;;;103.30;2227.20;;;;;;5037648;28;20025;-77
2023/04/07 05:33:06;;;;;;;578.28;263.88;;;103.30;2227.20;;;;;;5037333;28;20064;-78
2023/04/07 05:35:32;;;;;;;365.25;169.70;;;103.30;2227.20;;;;;;5037293;28;20479;-76
2023/04/07 05:37:58;;;;;;;217.65;118.05;;;103.30;2227.20;;;;;;5036862;28;20052;-76
2023/04/07 05:40:24;;;;;;;195.93;114.63;;;103.30;2227.20;;;;;;5036877;28;20519;-76
2023/04/07 05:42:50;;;;;;;214.00;127.10;;;103.20;2227.20;;;;;;5037141;28;20035;-79
2023/04/07 05:45:15;;;;;;;203.82;122.57;;;103.00;2227.20;;;;;;5054941;28;20028;-76
2023/04/07 05:47:41;;;;;;;213.50;122.13;;;103.10;2227.20;;;;;;5054397;28;20032;-80
2023/04/07 05:50:07;;;;;;;238.68;141.77;;;103.10;2227.20;;;;;;5054989;28;20025;-78
2023/04/07 05:52:33;;;;;;;180.45;112.72;;;128.20;2252.80;;;;;;5036658;28;20048;-77
2023/04/07 05:54:59;;;;;;;150.40;98.07;;;103.10;2227.20;;;;;;5054589;28;20065;-78
2023/04/07 05:57:26;;;;;;;150.75;100.18;;;103.00;2227.20;;;;;;5036852;28;20056;-78
2023/04/07 05:59:52;;;;;;;159.32;105.97;;;103.00;2227.20;;;;;;5036637;28;20025;-77
2023/04/07 06:02:18;;;;;;;174.13;104.93;;;103.10;2227.20;;;;;;5036892;28;20025;-80
2023/04/07 06:04:44;;;;;;;263.95;151.52;;;103.20;2227.20;;;;;;5036770;28;20060;-78
2023/04/07 06:07:09;;;;;;;169.30;99.68;;;103.20;2227.20;;;;;;5036340;28;20033;-77
2023/04/07 06:09:35;;;;;;;136.00;85.55;;;103.30;2227.20;;;;;;5036711;28;20124;-79
2023/04/07 06:12:03;;;;;;;124.75;78.35;;;128.10;2252.80;;;;;;5036776;28;20074;-78
2023/04/07 06:14:29;;;;;;;129.65;82.55;;;128.20;2252.80;;;;;;5036346;28;20029;-79
2023/04/07 06:16:55;;;;;;;141.43;88.05;;;128.10;2252.80;;;;;;5036401;28;20051;-80
2023/04/07 06:19:21;;;;;;;145.73;91.10;;;128.20;2252.80;;;;;;5036536;28;20461;-78
2023/04/07 06:21:47;;;;;;;209.27;118.63;;;128.20;2252.80;;;;;;5035983;28;20452;-78
2023/04/07 06:24:12;;;;;;;207.70;127.88;;;128.10;2252.80;;;;;;5036404;28;20474;-77
2023/04/07 06:26:40;;;;;;;175.10;113.50;;;128.10;2252.80;;;;;;5036274;28;20086;-80
2023/04/07 06:29:06;;;;;;;150.80;102.25;;;128.30;2252.80;;;;;;5035945;28;20033;-77
2023/04/07 06:31:32;;;;;;;144.25;92.55;;;128.00;2252.80;;;;;;5053827;28;20475;-78
2023/04/07 06:33:57;;;;;;;157.18;91.70;;;128.30;2252.80;;;;;;5036192;28;20029;-78
2023/04/07 06:36:23;;;;;;;173.80;103.80;;;128.50;2252.80;;;;;;5036003;28;20055;-79
2023/04/07 06:38:49;;;;;;;159.05;95.82;;;128.50;2252.80;;;;;;5035854;28;20408;-77
2023/04/07 06:41:18;;;;;;;118.97;68.38;;;128.50;2252.80;;;;;;5036391;28;20373;-79
2023/04/07 06:43:48;;;;;;;133.63;77.75;;;128.60;2252.80;;;;;;5035751;28;20032;-81
2023/04/07 06:46:13;;;;;;;208.02;119.57;;;128.60;2252.80;;;;;;5038690;28;20049;-78
2023/04/07 06:48:39;;;;;;;109.95;64.70;;;128.50;2252.80;;;;;;5041915;28;20032;-78
2023/04/07 06:51:05;;;;;;;168.38;86.40;;;128.60;2252.80;;;;;;5036860;28;20024;-78
2023/04/07 06:53:31;;;;;;;92.60;54.78;;;128.70;2252.80;;;;;;5035954;28;20025;-82
2023/04/07 06:56:07;;;;;;;69.63;39.70;;;128.80;2252.80;;;;;;5035575;28;20238;-81
2023/04/07 06:58:34;;;;;;;54.13;34.55;;;128.90;2252.80;;;;;;5041120;28;20036;-79
2023/04/07 07:01:00;;;;;;;55.50;35.50;;;153.80;2252.80;;;;;;5015818;28;20029;-79
2023/04/07 07:03:28;;;;;;;53.10;36.85;;;153.60;2252.80;;;;;;5014669;28;20025;-79
2023/04/07 07:05:58;;;;;;;51.80;37.25;;;153.90;2252.80;;;;;;5015929;28;20048;-78
2023/04/07 07:08:25;;;;;;;64.20;42.70;;;153.90;2252.80;;;;;;5015988;28;20087;-81
2023/04/07 07:10:51;;;;;;;57.58;37.90;;;153.80;2252.80;;;;;;5033623;28;20034;-79
2023/04/07 07:13:18;;;;;;;63.47;39.15;;;153.80;2252.80;;;;;;5015851;28;20048;-77
2023/04/07 07:15:44;;;;;;;57.95;35.70;;;153.90;2252.80;;;;;;5015918;28;20040;-82
2023/04/07 07:18:11;;;;;;;60.72;37.97;;;154.10;2252.80;;;;;;5015617;28;20034;-83
2023/04/07 07:20:37;;;;;;;54.67;37.60;;;154.20;2252.80;;;;;;5032384;28;20362;-76
2023/04/07 07:23:03;;;;;;;67.85;47.50;;;154.30;2252.80;;;;;;5015818;28;20035;-79
2023/04/07 07:25:29;;;;;;;76.63;53.17;;;154.40;2252.80;;;;;;5015477;28;20025;-81
2023/04/07 07:27:54;;;;;;;83.05;52.63;;;154.40;2252.80;;;;;;5015841;28;20087;-78
2023/04/07 07:30:21;;;;;;;73.65;50.50;;;154.50;2252.80;;;;;;5016013;28;20038;-80
2023/04/07 07:32:47;;;;;;;111.88;72.40;;;179.30;2252.80;;;;;;5015450;28;20116;-79
2023/04/07 07:35:14;;;;;;;79.55;55.17;;;179.40;2252.80;;;;;;5018045;28;20068;-83
2023/04/07 07:37:40;;;;;;;70.55;48.03;;;179.50;2252.80;;;;;;5019268;28;20057;-77
2023/04/07 07:40:06;;;;;;;78.00;52.17;;;179.60;2252.80;;;;;;5019660;28;20381;-77
2023/04/07 07:42:32;;;;;;;72.80;52.13;;;179.60;2252.80;;;;;;5036374;28;20061;-80
2023/04/07 07:44:58;;;;;;;178.98;112.45;;;179.50;2252.80;;;;;;5037275;28;20119;-82
2023/04/07 07:47:25;;;;;;;109.10;72.60;;;179.60;2252.80;;;;;;5019347;28;20029;-80
2023/04/07 07:49:51;;;;;;;84.70;57.30;;;179.70;2252.80;;;;;;5025214;28;20036;-79
2023/04/07 07:52:17;;;;;;;84.82;58.75;;;179.70;2252.80;;;;;;5057018;28;20457;-77
2023/04/07 07:54:42;;;;;;;81.38;59.50;;;179.80;2252.80;;;;;;5038097;28;20025;-79
2023/04/07 07:57:08;;;;;;;53.17;40.45;;;179.80;2252.80;;;;;;5039170;28;20036;-77
2023/04/07 07:59:34;;;;;;;69.97;48.47;;;179.80;2252.80;;;;;;5056743;28;20025;-81
2023/04/07 08:02:00;;;;;;;71.80;48.10;;;179.80;2252.80;;;;;;5039143;28;20036;-78
2023/04/07 08:04:26;;;;;;;72.38;49.85;;;179.80;2252.80;;;;;;5056632;28;20021;-82
2023/04/07 08:06:52;;;;;;;70.30;50.67;;;179.70;2252.80;;;;;;5056471;28;20028;-79
2023/04/07 08:09:19;;;;;;;69.10;50.15;;;179.90;2252.80;;;;;;5038850;28;20029;-82
2023/04/07 08:11:47;;;;;;;63.28;43.25;;;179.80;2252.80;;;;;;5038789;28;20086;-81
2023/04/07 08:14:13;;;;;;;79.00;56.20;;;179.80;2252.80;;;;;;5038565;28;20036;-83
2023/04/07 08:16:39;;;;;;;68.78;49.05;;;179.70;2252.80;;;;;;5038804;28;20029;-80
2023/04/07 08:19:05;;;;;;;75.32;54.72;;;179.70;2252.80;;;;;;5038795;28;20047;-78
2023/04/07 08:21:31;;;;;;;71.57;45.55;;;179.80;2252.80;;;;;;5038373;28;20051;-81
2023/04/07 08:23:57;;;;;;;134.43;76.05;;;179.90;2252.80;;;;;;5038690;28;20029;-80
2023/04/07 08:26:23;;;;;;;253.82;135.00;;;180.00;2252.80;;;;;;5038574;28;20044;-83
2023/04/07 08:28:51;;;;;;;125.97;68.65;;;180.00;2252.80;;;;;;5038248;28;20033;-76
2023/04/07 08:31:17;;;;;;;48.03;35.38;;;180.00;2252.80;;;;;;5038552;28;20036;-79
2023/04/07 08:33:43;;;;;;;42.20;29.00;;;180.00;2252.80;;;;;;5038225;28;20037;-81
2023/04/07 08:36:09;;;;;;;70.07;38.55;;;180.00;2252.80;;;;;;5038513;28;20036;-79
2023/04/07 08:38:35;;;;;;;78.00;46.97;;;180.10;2252.80;;;;;;5038048;28;20143;-77
2023/04/07 08:41:06;;;;;;;49.38;32.03;;;180.10;2252.80;;;;;;5038201;28;20029;-81
2023/04/07 08:43:35;;;;;;;41.28;25.48;;;180.10;2252.80;;;;;;5038454;28;20044;-78
2023/04/07 08:46:02;;;;;;;33.05;23.00;;;204.80;2252.80;;;;;;5038210;28;20035;-77
2023/04/07 08:48:32;;;;;;;35.22;23.60;;;204.80;2252.80;;;;;;5037909;28;20495;-82
2023/04/07 08:51:09;;;;;;;31.88;20.10;;;204.80;2252.80;;;;;;5038318;28;20079;-78
2023/04/07 08:53:42;;;;;;;32.83;19.80;;;204.80;2252.80;;;;;;5038288;28;20382;-79
2023/04/07 08:56:10;;;;;;;39.20;21.08;;;204.90;2252.80;;;;;;5037809;28;20099;-83
2023/04/07 08:58:36;;;;;;;25.33;15.68;;;205.00;2252.80;;;;;;5038083;28;20025;-80
2023/04/07 09:01:07;;;;;;;26.13;19.00;;;205.10;2252.80;;;;;;5037833;28;20025;-77
2023/04/07 09:03:33;;;;;;;30.23;19.52;;;205.20;2252.80;;;;;;5037754;28;20035;-80
2023/04/07 09:06:00;;;;;;;20.80;16.17;;;205.40;2252.80;;;;;;5055532;28;20112;-79
2023/04/07 09:08:26;;;;;;;24.08;14.63;;;205.50;2252.80;;;;;;5037847;28;20029;-77
2023/04/07 09:10:53;;;;;;;26.02;17.45;;;205.70;2252.80;;;;;;5037637;28;20029;-80
2023/04/07 09:13:19;;;;;;;22.13;16.58;;;230.40;2252.80;;;;;;5037780;28;20029;-81
2023/04/07 09:15:45;;;;;;;18.10;13.45;;;230.80;2252.80;;;;;;5037173;28;20033;-78
2023/04/07 09:18:13;;;;;;;18.98;12.95;;;230.50;2252.80;;;;;;5037705;28;20029;-78
2023/04/07 09:21:02;;;;;;;19.05;14.00;;;230.50;2252.80;;;;;;5055543;28;20021;-77
2023/04/07 09:23:34;;;;;;;14.15;10.52;;;230.50;2252.80;;;;;;5037109;28;20064;-77
2023/04/07 09:26:18;;;;;;;14.88;10.40;;;230.60;2252.80;;;;;;5037480;28;20464;-80
2023/04/07 09:28:45;;;;;;;19.40;14.02;;;230.60;2252.80;;;;;;5037551;28;20037;-78
2023/04/07 09:31:11;;;;;;;44.40;20.80;;;230.60;2252.80;;;;;;5037172;28;20032;-76
2023/04/07 09:33:37;;;;;;;23.52;15.27;;;230.60;2252.80;;;;;;5055455;28;20021;-79
2023/04/07 09:36:05;;;;;;;27.45;16.60;;;230.70;2252.80;;;;;;5037566;28;20039;-81
2023/04/07 09:38:36;;;;;;;17.23;9.55;;;230.60;2252.80;;;;;;5055081;28;20048;-77
2023/04/07 09:41:14;;;;;;;16.30;9.55;;;230.60;2252.80;;;;;;5037388;28;20029;-80
2023/04/07 09:43:43;;;;;;;45.60;21.90;;;230.60;2252.80;;;;;;5036918;28;20036;-81
2023/04/07 09:46:16;;;;;;;24.33;14.25;;;230.60;2252.80;;;;;;5037186;28;20029;-80
2023/04/07 09:48:42;;;;;;;;;;;230.60;2252.80;;;;;;5030186;28;20033;-78
2023/04/07 09:51:13;;;;;;;32.78;18.17;;;230.60;2252.80;;;;;;5030753;28;19909;-79
2023/04/07 09:53:48;;;;;;;35.15;20.10;;;230.60;2252.80;;;;;;5044714;28;20025;-77
2023/04/07 09:56:18;;;;;;;22.58;13.88;;;230.60;2252.80;;;;;;5021911;28;20048;-78
2023/04/07 09:58:50;;;;;;;13.90;10.02;;;230.60;2252.80;;;;;;5032268;28;20053;-77
2023/04/07 10:01:17;;;;;;;13.90;9.82;;;230.70;2252.80;;;;;;5040748;28;20163;-79
2023/04/07 10:03:45;;;;;;;20.20;14.80;;;230.60;2252.80;;;;;;5042414;28;20136;-82
2023/04/07 10:06:12;;;;;;;22.77;15.40;;;230.60;2252.80;;;;;;5054244;28;20358;-84
2023/04/07 10:08:40;;;;;;;37.08;19.08;;;230.50;2252.80;;;;;;5036462;28;20124;-81
2023/04/07 10:11:06;;;;;;;26.15;16.35;;;230.60;2252.80;;;;;;5028653;28;20035;-79
2023/04/07 10:13:34;;;;;;;23.15;13.80;;;230.60;2252.80;;;;;;5044984;28;20086;-80
2023/04/07 10:16:04;;;;;;;14.00;10.93;;;230.60;2252.80;;;;;;5036365;28;20029;-81
2023/04/07 10:18:32;;;;;;;18.67;12.55;;;230.60;2252.80;;;;;;5035565;28;20380;-83
2023/04/07 10:21:03;;;;;;;30.15;18.25;;;230.60;2252.80;;;;;;5033903;28;20086;-80
2023/04/07 10:23:51;;;;;;;13.48;9.90;;;230.60;2252.80;;;;;;5027707;28;20083;-80
2023/04/07 10:26:22;;;;;;;14.35;10.35;;;230.60;2252.80;;;;;;5030729;28;20053;-77
2023/04/07 10:28:53;;;;;;;15.50;12.30;;;230.60;2252.80;;;;;;5046275;28;20033;-79
2023/04/07 10:31:20;;;;;;;17.92;11.77;;;230.60;2252.80;;;;;;5029098;28;20517;-80
2023/04/07 10:33:52;;;;;;;14.65;10.30;;;230.60;2252.80;;;;;;5026388;28;20048;-79
2023/04/07 10:36:20;;;;;;;14.10;9.65;;;230.60;2252.80;;;;;;5038576;28;20025;-79
2023/04/07 10:39:07;;;;;;;18.23;11.48;;;230.60;2252.80;;;;;;5050368;28;20041;-81
2023/04/07 10:41:37;;;;;;;13.82;10.45;;;230.60;2252.80;;;;;;5042446;28;20536;-80
2023/04/07 10:44:05;;;;;;;18.58;12.88;;;230.60;2252.80;;;;;;5022760;28;20535;-79
2023/04/07 10:46:50;;;;;;;15.38;11.70;;;230.60;2252.80;;;;;;5032150;28;20048;-82
2023/04/07 10:49:16;;;;;;;25.90;16.02;;;230.60;2252.80;;;;;;5040635;28;20020;-77
2023/04/07 10:51:42;;;;;;;20.65;14.18;;;230.70;2252.80;;;;;;5025364;28;20044;-81
2023/04/07 10:54:22;;;;;;;43.75;28.88;;;230.60;2252.80;;;;;;5047635;28;20078;-81
2023/04/07 10:57:09;;;;;;;61.50;35.25;;;230.60;2252.80;;;;;;5037189;28;20041;-78
2023/04/07 10:59:35;;;;;;;25.33;17.95;;;230.60;2252.80;;;;;;5041246;28;20029;-79
2023/04/07 11:02:13;;;;;;;26.02;16.80;;;230.60;2252.80;;;;;;5052760;28;20056;-79
2023/04/07 11:04:44;;;;;;;16.55;12.40;;;230.60;2252.80;;;;;;5035956;28;20071;-82
2023/04/07 11:07:12;;;;;;;21.17;14.80;;;230.50;2252.80;;;;;;5030039;28;20487;-81
2023/04/07 11:09:39;;;;;;;21.80;14.88;;;230.50;2252.80;;;;;;5025495;28;20124;-83
2023/04/07 11:12:05;;;;;;;26.15;19.45;;;230.50;2252.80;;;;;;5022372;28;20428;-81
2023/04/07 11:14:32;;;;;;;13.48;11.23;;;230.50;2252.80;;;;;;5031967;28;20464;-83
2023/04/07 11:17:00;;;;;;;30.75;22.98;;;205.70;2252.80;;;;;;5019726;28;20033;-82
2023/04/07 11:19:26;;;;;;;34.17;22.77;;;230.50;2252.80;;;;;;5051988;28;20492;-80
2023/04/07 11:22:15;;;;;;;40.05;24.55;;;230.50;2252.80;;;;;;5035402;28;20029;-84
2023/04/07 11:24:42;;;;;;;30.75;22.35;;;230.60;2252.80;;;;;;5049453;28;20894;-81
2023/04/07 11:27:15;;;;;;;31.13;21.77;;;230.60;2252.80;;;;;;5031315;28;20506;-80
2023/04/07 11:29:41;;;;;;;23.25;17.27;;;230.60;2252.80;;;;;;5038761;28;20472;-79
2023/04/07 11:32:07;;;;;;;16.63;11.45;;;230.60;2252.80;;;;;;5039817;28;20040;-81
2023/04/07 11:34:36;;;;;;;29.52;25.48;;;230.60;2252.80;;;;;;5035041;28;20056;-78
2023/04/07 11:37:22;;;;;;;30.38;24.83;;;230.60;2252.80;;;;;;5048989;28;20052;-80
2023/04/07 11:39:55;;;;;;;21.55;15.82;;;230.80;2252.80;;;;;;5031141;28;20033;-80
2023/04/07 11:42:35;;;;;;;22.58;17.42;;;230.70;2252.80;;;;;;5035850;28;20036;-82
2023/04/07 11:45:01;;;;;;;19.98;13.55;;;230.80;2252.80;;;;;;5035220;28;20415;-81
2023/04/07 11:47:38;;;;;;;19.20;11.88;;;230.70;2252.80;;;;;;5034663;28;20126;-81
2023/04/07 11:50:04;;;;;;;17.58;11.95;;;230.70;2252.80;;;;;;5030058;28;20377;-79
2023/04/07 11:52:40;;;;;;;15.95;11.25;;;230.70;2252.80;;;;;;5032566;28;20025;-81
2023/04/07 11:55:15;;;;;;;14.23;10.70;;;230.60;2252.80;;;;;;5046664;28;20057;-80
2023/04/07 11:57:41;;;;;;;21.02;13.70;;;230.60;2252.80;;;;;;5033897;28;20025;-79
2023/04/07 12:00:08;;;;;;;20.35;13.25;;;230.70;2252.80;;;;;;5045119;28;20071;-82
2023/04/07 12:02:34;;;;;;;16.77;10.80;;;230.80;2252.80;;;;;;5032497;28;20021;-80